Time;durP1;ratioP1;P1;durP2;ratioP2;P2;SDS_P1;SDS_P2;PMS_P1;PMS_P2;Temp;Humidity;BMP_temperature;BMP_pressure;BME280_temperature;BME280_humidity;BME280_pressure;Samples;Min_cycle;Max_cycle;Signal;HPM_P1;HPM_P2
2022/04/29 00:00:22;;;;;;;2.05;1.95;;;15.00;93.10;;;;;;6184522;23;20008;-80
2022/04/29 00:02:48;;;;;;;3.00;2.70;;;14.90;93.90;;;;;;6184427;23;20411;-80
2022/04/29 00:05:15;;;;;;;2.83;2.63;;;14.90;94.20;;;;;;6153138;23;20005;-80
2022/04/29 00:07:41;;;;;;;4.60;3.15;;;14.80;93.90;;;;;;6176063;23;20461;-80
2022/04/29 00:10:12;;;;;;;4.32;2.80;;;14.80;93.40;;;;;;6184238;23;20029;-80
2022/04/29 00:12:38;;;;;;;5.25;2.90;;;14.80;93.50;;;;;;6184619;23;19997;-80
2022/04/29 00:15:04;;;;;;;4.80;2.85;;;14.80;93.40;;;;;;6184602;23;19994;-80
2022/04/29 00:17:32;;;;;;;2.40;2.20;;;14.80;93.40;;;;;;6184536;23;20071;-80
2022/04/29 00:19:58;;;;;;;3.42;2.35;;;14.70;93.30;;;;;;6183944;23;20095;-80
2022/04/29 00:22:24;;;;;;;2.65;2.45;;;14.70;93.80;;;;;;6184158;23;20001;-80
2022/04/29 00:24:50;;;;;;;4.15;2.78;;;14.70;93.90;;;;;;6184335;23;20080;-80
2022/04/29 00:27:16;;;;;;;4.72;3.30;;;14.70;93.30;;;;;;6184072;23;20421;-80
2022/04/29 00:29:42;;;;;;;2.80;2.60;;;14.70;93.50;;;;;;6184219;23;20180;-80
2022/04/29 00:32:08;;;;;;;3.85;2.17;;;14.80;91.90;;;;;;6184262;23;20157;-80
2022/04/29 00:34:34;;;;;;;2.70;2.55;;;14.80;93.00;;;;;;6184110;23;20334;-80
2022/04/29 00:36:59;;;;;;;2.70;2.50;;;14.70;93.40;;;;;;6183968;23;20005;-80
2022/04/29 00:39:25;;;;;;;2.85;2.65;;;14.60;93.90;;;;;;6184170;23;20025;-80
2022/04/29 00:41:51;;;;;;;3.53;2.60;;;14.60;93.80;;;;;;6184182;23;20005;-80
2022/04/29 00:44:17;;;;;;;2.95;2.75;;;14.60;93.40;;;;;;6183991;23;20001;-80
2022/04/29 00:46:44;;;;;;;3.28;3.03;;;14.70;93.30;;;;;;6157761;23;20064;-80
2022/04/29 00:49:12;;;;;;;4.40;2.70;;;14.70;93.50;;;;;;6183798;23;19997;-80
2022/04/29 00:51:40;;;;;;;2.45;2.25;;;14.70;93.30;;;;;;6157694;23;20001;-80
2022/04/29 00:54:13;;;;;;;5.30;2.97;;;14.60;93.20;;;;;;6183988;23;20008;-80
2022/04/29 00:56:43;;;;;;;3.80;3.47;;;14.60;93.30;;;;;;6184066;23;20113;-80
2022/04/29 00:59:21;;;;;;;6.53;3.35;;;14.60;93.30;;;;;;6157219;23;20032;-80
2022/04/29 01:01:47;;;;;;;3.17;2.90;;;14.60;93.30;;;;;;6183906;23;20001;-80
2022/04/29 01:04:31;;;;;;;3.17;2.88;;;14.60;93.20;;;;;;6183791;23;20005;-80
2022/04/29 01:06:57;;;;;;;2.80;2.60;;;14.70;93.30;;;;;;6183934;23;20029;-80
2022/04/29 01:09:22;;;;;;;3.63;2.72;;;14.60;93.30;;;;;;6183876;23;20004;-80
2022/04/29 01:11:50;;;;;;;3.00;2.80;;;14.60;93.70;;;;;;6157558;23;20445;-80
2022/04/29 01:14:18;;;;;;;2.95;2.72;;;14.60;93.80;;;;;;6183892;23;19997;-80
2022/04/29 01:16:44;;;;;;;3.35;3.03;;;14.60;93.70;;;;;;6183623;23;20445;-80
2022/04/29 01:19:10;;;;;;;3.22;2.25;;;14.60;94.20;;;;;;6183732;23;20008;-80
2022/04/29 01:21:35;;;;;;;5.97;3.10;;;14.70;93.00;;;;;;6184102;23;20088;-80
2022/04/29 01:24:01;;;;;;;2.33;2.22;;;14.70;93.20;;;;;;6183648;23;20012;-80
2022/04/29 01:26:27;;;;;;;3.03;2.83;;;14.70;92.90;;;;;;6183709;23;20385;-80
2022/04/29 01:28:53;;;;;;;4.43;2.60;;;14.70;92.80;;;;;;6183381;23;20072;-80
2022/04/29 01:31:22;;;;;;;3.22;2.92;;;14.80;92.80;;;;;;6183706;23;20055;-80
2022/04/29 01:33:49;;;;;;;2.90;2.70;;;14.80;92.90;;;;;;6183831;23;20076;-80
2022/04/29 01:36:15;;;;;;;4.03;3.17;;;14.70;92.80;;;;;;6183680;23;20008;-80
2022/04/29 01:38:41;;;;;;;3.75;3.05;;;14.80;91.70;;;;;;6183496;23;20001;-79
2022/04/29 01:41:07;;;;;;;3.42;3.13;;;14.90;91.30;;;;;;6183732;23;20005;-80
2022/04/29 01:43:34;;;;;;;5.88;3.03;;;14.90;91.10;;;;;;6183448;23;19993;-80
2022/04/29 01:46:01;;;;;;;2.85;2.53;;;15.00;90.60;;;;;;6183959;23;20005;-80
2022/04/29 01:48:27;;;;;;;3.17;2.88;;;15.00;90.20;;;;;;6183304;23;20089;-80
2022/04/29 01:50:53;;;;;;;4.60;2.63;;;15.10;89.70;;;;;;6183669;23;20016;-80
2022/04/29 01:53:19;;;;;;;4.57;2.83;;;15.10;90.10;;;;;;6183638;23;20080;-80
2022/04/29 01:55:44;;;;;;;2.97;2.78;;;15.10;90.30;;;;;;6183578;23;19997;-80
2022/04/29 01:58:10;;;;;;;2.95;2.75;;;15.10;90.80;;;;;;6183671;23;20099;-80
2022/04/29 02:00:36;;;;;;;3.63;3.28;;;15.10;91.10;;;;;;6157248;23;20015;-80
2022/04/29 02:03:02;;;;;;;4.97;3.78;;;15.00;92.30;;;;;;6183371;23;20005;-80
2022/04/29 02:05:31;;;;;;;4.10;3.55;;;14.90;92.60;;;;;;6183728;23;20012;-80
2022/04/29 02:08:00;;;;;;;3.33;2.67;;;14.90;92.80;;;;;;6183567;23;20420;-80
2022/04/29 02:10:26;;;;;;;4.93;2.53;;;14.80;92.80;;;;;;6183650;23;20209;-80
2022/04/29 02:12:56;;;;;;;2.67;2.47;;;14.80;93.10;;;;;;6183459;23;20037;-80
2022/04/29 02:15:22;;;;;;;2.88;2.67;;;14.80;92.90;;;;;;6157113;23;20197;-80
2022/04/29 02:17:47;;;;;;;3.28;2.63;;;14.80;93.20;;;;;;6183532;23;20005;-80
2022/04/29 02:20:13;;;;;;;2.60;2.42;;;14.70;93.60;;;;;;6183683;23;20012;-80
2022/04/29 02:22:40;;;;;;;4.32;2.67;;;14.60;94.10;;;;;;6157259;23;20037;-80
2022/04/29 02:25:06;;;;;;;2.90;2.70;;;14.50;94.80;;;;;;6157106;23;20017;-80
2022/04/29 02:27:32;;;;;;;2.83;2.38;;;14.40;95.20;;;;;;6184678;23;20046;-80
2022/04/29 02:29:58;;;;;;;2.47;2.28;;;14.40;95.50;;;;;;6185198;23;20048;-80
2022/04/29 02:32:24;;;;;;;2.67;2.40;;;14.40;95.50;;;;;;6185429;23;20008;-80
2022/04/29 02:34:50;;;;;;;2.60;2.40;;;14.30;95.40;;;;;;6185475;23;20081;-80
2022/04/29 02:37:17;;;;;;;2.33;2.22;;;14.20;95.60;;;;;;6184998;23;20055;-80
2022/04/29 02:39:42;;;;;;;3.03;2.55;;;14.20;95.90;;;;;;6185205;23;20032;-80
2022/04/29 02:42:08;;;;;;;2.40;2.20;;;14.30;96.00;;;;;;6158430;23;20016;-80
2022/04/29 02:44:34;;;;;;;2.95;2.30;;;14.30;95.30;;;;;;6159072;23;20448;-80
2022/04/29 02:47:09;;;;;;;3.25;2.13;;;14.30;95.30;;;;;;6184950;23;20005;-80
2022/04/29 02:49:44;;;;;;;2.60;2.40;;;14.40;95.50;;;;;;6158088;23;20325;-79
2022/04/29 02:52:12;;;;;;;2.65;2.20;;;14.40;95.50;;;;;;6185254;23;20080;-80
2022/04/29 02:54:38;;;;;;;2.97;2.70;;;14.40;95.50;;;;;;6184698;23;20005;-80
2022/04/29 02:57:04;;;;;;;4.68;2.50;;;14.40;95.40;;;;;;6158875;23;20009;-81
2022/04/29 02:59:30;;;;;;;11.63;2.40;;;14.40;95.30;;;;;;6184626;23;19997;-80
2022/04/29 03:01:56;;;;;;;3.15;2.45;;;14.40;95.20;;;;;;6158611;23;20005;-80
2022/04/29 03:04:22;;;;;;;3.22;2.45;;;14.40;95.20;;;;;;6184660;23;20017;-80
2022/04/29 03:06:48;;;;;;;2.42;2.33;;;14.30;95.30;;;;;;6185042;23;20029;-80
2022/04/29 03:09:15;;;;;;;2.90;2.40;;;14.40;95.50;;;;;;6184914;23;20001;-81
2022/04/29 03:11:43;;;;;;;2.97;2.70;;;14.40;95.20;;;;;;6176274;23;20008;-80
2022/04/29 03:14:09;;;;;;;3.17;2.63;;;14.30;95.00;;;;;;6184972;23;20374;-80
2022/04/29 03:16:35;;;;;;;5.88;2.40;;;14.40;95.10;;;;;;6185086;23;20009;-80
2022/04/29 03:19:01;;;;;;;2.60;2.40;;;14.40;94.90;;;;;;6184767;23;20449;-79
2022/04/29 03:21:26;;;;;;;2.45;2.25;;;14.40;95.10;;;;;;6184930;23;20001;-80
2022/04/29 03:23:53;;;;;;;2.55;2.40;;;14.40;95.30;;;;;;6184603;23;20020;-80
2022/04/29 03:26:18;;;;;;;4.10;2.40;;;14.40;95.50;;;;;;6184828;23;20009;-80
2022/04/29 03:28:44;;;;;;;2.50;2.30;;;14.40;95.50;;;;;;6185050;23;20035;-80
2022/04/29 03:31:10;;;;;;;5.90;2.78;;;14.40;95.10;;;;;;6185048;23;20012;-80
2022/04/29 03:33:36;;;;;;;2.60;2.40;;;14.40;94.40;;;;;;6184735;23;19997;-80
2022/04/29 03:36:02;;;;;;;4.75;2.85;;;14.40;94.50;;;;;;6184779;23;20087;-80
2022/04/29 03:38:27;;;;;;;6.15;2.15;;;14.40;94.30;;;;;;6184433;23;20047;-80
2022/04/29 03:40:54;;;;;;;2.80;2.50;;;14.50;94.30;;;;;;6184597;23;20088;-80
2022/04/29 03:43:20;;;;;;;3.22;2.92;;;14.50;94.00;;;;;;6184556;23;20280;-80
2022/04/29 03:45:47;;;;;;;2.30;2.20;;;14.50;93.80;;;;;;6184676;23;20072;-80
2022/04/29 03:48:13;;;;;;;3.08;2.78;;;14.50;93.90;;;;;;6157796;23;20515;-80
2022/04/29 03:50:39;;;;;;;2.80;2.60;;;14.50;93.40;;;;;;6184455;23;20437;-80
2022/04/29 03:53:06;;;;;;;2.83;2.63;;;14.50;93.20;;;;;;6184228;23;20001;-80
2022/04/29 03:55:33;;;;;;;3.80;2.78;;;14.50;93.90;;;;;;6184565;23;20005;-80
2022/04/29 03:58:01;;;;;;;4.65;2.55;;;14.50;94.00;;;;;;6158038;23;20024;-80
2022/04/29 04:00:32;;;;;;;4.65;3.15;;;14.40;93.50;;;;;;6158042;23;20090;-80
2022/04/29 04:03:05;;;;;;;2.77;2.57;;;14.40;93.60;;;;;;6184367;23;20371;-80
2022/04/29 04:05:32;;;;;;;3.90;2.15;;;14.50;93.40;;;;;;6184373;23;20692;-80
2022/04/29 04:07:58;;;;;;;3.13;2.22;;;14.50;92.80;;;;;;6184280;23;20001;-80
2022/04/29 04:10:24;;;;;;;4.90;2.38;;;14.50;92.90;;;;;;6158055;23;20005;-81
2022/04/29 04:12:51;;;;;;;3.63;2.40;;;14.50;93.10;;;;;;6157821;23;20107;-80
2022/04/29 04:15:26;;;;;;;3.33;2.70;;;14.50;93.00;;;;;;6184282;23;20493;-80
2022/04/29 04:17:52;;;;;;;4.05;3.03;;;14.50;93.30;;;;;;6184361;23;20009;-80
2022/04/29 04:20:18;;;;;;;2.60;2.40;;;14.50;92.90;;;;;;6184146;23;20011;-80
2022/04/29 04:22:46;;;;;;;5.00;2.70;;;14.50;92.90;;;;;;6157516;23;20063;-80
2022/04/29 04:25:14;;;;;;;2.35;2.10;;;14.40;93.40;;;;;;6157838;23;20394;-80
2022/04/29 04:27:40;;;;;;;3.90;3.10;;;14.40;92.90;;;;;;6183752;23;20009;-80
2022/04/29 04:30:07;;;;;;;5.35;2.80;;;14.50;92.60;;;;;;6157822;23;20005;-80
2022/04/29 04:32:37;;;;;;;3.17;2.80;;;14.50;92.30;;;;;;6184217;23;20062;-80
2022/04/29 04:35:04;;;;;;;2.63;2.40;;;14.50;92.60;;;;;;6157630;23;20004;-81
2022/04/29 04:37:32;;;;;;;2.95;2.70;;;14.50;92.80;;;;;;6156322;23;20008;-80
2022/04/29 04:40:02;;;;;;;3.00;2.80;;;14.50;92.60;;;;;;6156457;23;20013;-80
2022/04/29 04:42:28;;;;;;;5.15;2.30;;;14.50;92.70;;;;;;6183034;23;20004;-80
2022/04/29 04:44:54;;;;;;;4.20;2.65;;;14.50;92.60;;;;;;6183241;23;20005;-80
2022/04/29 04:47:21;;;;;;;2.38;2.25;;;14.50;92.20;;;;;;6176486;23;20048;-80
2022/04/29 04:49:47;;;;;;;3.13;2.65;;;14.50;92.50;;;;;;6176909;23;20001;-80
2022/04/29 04:52:13;;;;;;;3.10;2.30;;;14.50;92.60;;;;;;6183092;23;20005;-80
2022/04/29 04:54:38;;;;;;;4.20;2.58;;;14.50;92.00;;;;;;6182905;23;20084;-80
2022/04/29 04:57:05;;;;;;;2.33;2.22;;;14.50;90.90;;;;;;6156512;23;20012;-80
2022/04/29 04:59:31;;;;;;;3.40;2.90;;;14.50;91.80;;;;;;6182900;23;20433;-80
2022/04/29 05:01:57;;;;;;;5.43;3.03;;;14.50;92.00;;;;;;6182788;23;20012;-80
2022/04/29 05:04:23;;;;;;;3.85;2.83;;;14.50;91.70;;;;;;6182586;23;20063;-80
2022/04/29 05:06:50;;;;;;;3.80;3.00;;;14.40;92.00;;;;;;6183616;23;20009;-80
2022/04/29 05:09:16;;;;;;;4.32;2.75;;;14.50;92.00;;;;;;6159497;23;20076;-80
2022/04/29 05:11:42;;;;;;;2.70;2.50;;;14.50;91.80;;;;;;6183757;23;20029;-75
2022/04/29 05:14:08;;;;;;;2.45;2.35;;;14.50;91.80;;;;;;6183900;23;20334;-75
2022/04/29 05:16:33;;;;;;;3.03;2.83;;;14.50;91.00;;;;;;6157213;23;20016;-75
2022/04/29 05:18:59;;;;;;;3.85;3.15;;;14.50;92.20;;;;;;6183374;23;20315;-75
2022/04/29 05:21:25;;;;;;;4.40;2.45;;;14.50;92.60;;;;;;6157163;23;20016;-75
2022/04/29 05:23:51;;;;;;;2.80;2.60;;;14.50;92.30;;;;;;6176726;23;20019;-75
2022/04/29 05:26:16;;;;;;;3.63;2.78;;;14.50;92.50;;;;;;6157003;23;20040;-75
2022/04/29 05:28:42;;;;;;;3.70;2.75;;;14.50;91.60;;;;;;6181284;23;20063;-75
2022/04/29 05:31:08;;;;;;;2.90;2.60;;;14.50;91.40;;;;;;6181236;23;20152;-74
2022/04/29 05:33:35;;;;;;;2.85;2.67;;;14.50;92.10;;;;;;6154818;23;20005;-75
2022/04/29 05:36:03;;;;;;;2.40;2.20;;;14.50;91.90;;;;;;6181479;23;20001;-75
2022/04/29 05:42:14;;;;;;;4.78;2.60;;;14.50;92.10;;;;;;6155051;23;20033;-75
2022/04/29 05:43:59;;;;;;;2.13;2.03;;;14.50;92.60;;;;;;6182774;23;20063;-75
2022/04/29 05:46:25;;;;;;;3.63;2.90;;;14.50;91.40;;;;;;6183323;23;20005;-75
2022/04/29 05:48:51;;;;;;;2.95;2.17;;;14.60;91.90;;;;;;6183108;23;20377;-75
2022/04/29 05:51:16;;;;;;;4.40;2.30;;;14.60;92.50;;;;;;6183531;23;20004;-75
2022/04/29 05:53:42;;;;;;;3.75;2.70;;;14.60;91.90;;;;;;6183296;23;20132;-75
2022/04/29 05:56:08;;;;;;;4.68;2.70;;;14.70;91.80;;;;;;6183102;23;19998;-75
2022/04/29 05:58:33;;;;;;;6.35;3.20;;;14.80;92.10;;;;;;6183164;23;20078;-75
2022/04/29 06:00:59;;;;;;;15.70;3.40;;;14.80;90.10;;;;;;6183410;23;19997;-75
2022/04/29 06:03:25;;;;;;;4.15;2.72;;;15.00;90.00;;;;;;6185405;23;20001;-75
2022/04/29 06:05:51;;;;;;;3.75;2.78;;;15.00;90.50;;;;;;6185360;23;20303;-75
2022/04/29 06:08:17;;;;;;;9.70;3.08;;;15.00;91.40;;;;;;6184648;23;20062;-75
2022/04/29 06:10:43;;;;;;;4.47;2.90;;;15.10;90.60;;;;;;6185204;23;20001;-75
2022/04/29 06:13:09;;;;;;;3.10;2.78;;;15.10;86.10;;;;;;6185398;23;20012;-75
2022/04/29 06:15:35;;;;;;;3.20;2.97;;;15.20;86.60;;;;;;6185851;23;19997;-75
2022/04/29 06:18:02;;;;;;;3.17;2.80;;;15.20;86.00;;;;;;6159294;23;20009;-75
2022/04/29 06:20:29;;;;;;;4.50;2.22;;;15.30;85.00;;;;;;6160100;23;20008;-75
2022/04/29 06:22:55;;;;;;;6.57;2.42;;;15.40;85.20;;;;;;6186387;23;20036;-75
2022/04/29 06:25:22;;;;;;;2.60;2.40;;;15.40;79.20;;;;;;6185952;23;20028;-75
2022/04/29 06:27:48;;;;;;;3.35;3.00;;;15.40;82.20;;;;;;6186202;23;20063;-75
2022/04/29 06:30:15;;;;;;;2.47;2.28;;;15.30;85.60;;;;;;6186789;23;20001;-75
2022/04/29 06:32:40;;;;;;;2.92;2.53;;;15.50;82.40;;;;;;6186205;23;20346;-75
2022/04/29 06:35:07;;;;;;;3.10;2.53;;;15.50;80.40;;;;;;6159778;23;19997;-74
2022/04/29 06:37:34;;;;;;;2.50;2.30;;;15.50;75.90;;;;;;6186490;23;20020;-75
2022/04/29 06:40:00;;;;;;;2.60;2.47;;;15.50;78.00;;;;;;6186219;23;20565;-75
2022/04/29 06:42:26;;;;;;;2.95;2.55;;;15.50;78.50;;;;;;6185807;23;20001;-75
2022/04/29 06:44:52;;;;;;;2.60;2.35;;;15.50;77.60;;;;;;6159298;23;20013;-75
2022/04/29 06:47:18;;;;;;;3.03;2.78;;;15.50;76.50;;;;;;6159587;23;20005;-74
2022/04/29 06:49:44;;;;;;;2.45;2.25;;;15.50;74.70;;;;;;6185669;23;20047;-75
2022/04/29 06:52:10;;;;;;;4.15;2.53;;;15.50;74.40;;;;;;6186382;23;20341;-74
2022/04/29 06:54:36;;;;;;;3.40;1.85;;;15.50;77.00;;;;;;6186169;23;20039;-75
2022/04/29 06:57:01;;;;;;;3.25;2.83;;;15.50;72.30;;;;;;6186686;23;20088;-74
2022/04/29 06:59:27;;;;;;;5.53;2.15;;;15.70;75.00;;;;;;6159800;23;20009;-75
2022/04/29 07:01:53;;;;;;;1.75;1.65;;;15.70;71.10;;;;;;6186028;23;20093;-75
2022/04/29 07:04:19;;;;;;;4.07;2.28;;;15.70;71.70;;;;;;6158843;23;20008;-75
2022/04/29 07:06:45;;;;;;;3.30;2.70;;;15.70;70.10;;;;;;6185753;23;20011;-75
2022/04/29 07:09:10;;;;;;;2.60;2.40;;;15.70;70.00;;;;;;6186429;23;19998;-75
2022/04/29 07:11:36;;;;;;;2.20;2.10;;;15.80;70.80;;;;;;6186468;23;20056;-79
2022/04/29 07:14:02;;;;;;;2.45;2.00;;;15.70;68.00;;;;;;6185452;23;20504;-80
2022/04/29 07:16:30;;;;;;;2.20;2.10;;;15.70;70.40;;;;;;6185151;23;20431;-80
2022/04/29 07:18:57;;;;;;;5.25;2.00;;;15.70;70.80;;;;;;6182506;23;20016;-80
2022/04/29 07:21:23;;;;;;;1.60;1.50;;;15.80;72.10;;;;;;6182836;23;20460;-80
2022/04/29 07:23:49;;;;;;;2.15;2.05;;;15.90;73.50;;;;;;6183390;23;20014;-80
2022/04/29 07:26:15;;;;;;;2.72;2.53;;;16.00;73.10;;;;;;6182805;23;20012;-81
2022/04/29 07:28:41;;;;;;;2.92;2.40;;;16.00;73.20;;;;;;6156842;23;20005;-80
2022/04/29 07:31:07;;;;;;;2.00;1.90;;;16.10;72.30;;;;;;6182837;23;20481;-80
2022/04/29 07:33:33;;;;;;;2.40;1.80;;;16.00;72.50;;;;;;6182703;23;20004;-81
2022/04/29 07:41:45;;;;;;;2.83;2.03;;;16.10;73.60;;;;;;6182287;23;20067;-79
2022/04/29 07:44:11;;;;;;;2.47;2.28;;;16.20;74.30;;;;;;6179718;23;20067;-78
2022/04/29 07:46:37;;;;;;;2.22;1.98;;;16.30;68.80;;;;;;6180003;23;20083;-78
2022/04/29 07:49:04;;;;;;;2.88;2.13;;;16.30;71.60;;;;;;6180617;23;20687;-78
2022/04/29 07:51:30;;;;;;;3.17;1.95;;;16.40;70.50;;;;;;6180099;23;20084;-78
2022/04/29 07:53:56;;;;;;;5.47;2.05;;;16.40;69.80;;;;;;6181192;23;20468;-78
2022/04/29 07:56:22;;;;;;;3.58;2.45;;;16.50;66.00;;;;;;6181366;23;20135;-79
2022/04/29 07:58:48;;;;;;;2.72;2.42;;;16.60;65.00;;;;;;6181904;23;20001;-79
2022/04/29 08:01:13;;;;;;;2.47;2.28;;;16.70;65.80;;;;;;6154415;23;20017;-78
2022/04/29 08:03:39;;;;;;;2.40;2.05;;;16.80;67.10;;;;;;6179980;23;20011;-80
2022/04/29 08:06:07;;;;;;;1.80;1.70;;;16.90;61.70;;;;;;6179499;23;20433;-80
2022/04/29 08:08:34;;;;;;;2.30;2.00;;;16.90;64.50;;;;;;6181862;23;20478;-81
2022/04/29 08:11:03;;;;;;;2.50;2.30;;;16.90;66.00;;;;;;6155018;23;20499;-80
2022/04/29 08:13:29;;;;;;;1.65;1.52;;;17.10;64.00;;;;;;6181937;23;20001;-79
2022/04/29 08:15:55;;;;;;;2.08;1.90;;;17.10;64.50;;;;;;6182699;23;20007;-80
2022/04/29 08:18:21;;;;;;;1.98;1.88;;;17.10;66.20;;;;;;6182220;23;20437;-79
2022/04/29 08:20:47;;;;;;;2.25;2.05;;;17.10;62.00;;;;;;6156476;23;20009;-78
2022/04/29 08:23:13;;;;;;;2.15;2.05;;;17.10;62.50;;;;;;6182483;23;20016;-79
2022/04/29 08:25:39;;;;;;;5.88;2.25;;;17.10;65.20;;;;;;6182596;23;20001;-80
2022/04/29 08:28:05;;;;;;;2.92;2.50;;;17.20;64.10;;;;;;6182991;23;20058;-77
2022/04/29 08:30:34;;;;;;;2.05;1.95;;;17.20;63.70;;;;;;6182679;23;20079;-78
2022/04/29 08:33:00;;;;;;;2.65;2.20;;;17.20;63.60;;;;;;6182785;23;19997;-77
2022/04/29 08:35:28;;;;;;;1.95;1.85;;;17.20;64.60;;;;;;6183120;23;20466;-78
2022/04/29 08:37:59;;;;;;;3.95;1.95;;;17.10;66.50;;;;;;6182157;23;20001;-78
2022/04/29 08:40:28;;;;;;;2.00;1.90;;;17.10;67.60;;;;;;6182693;23;20008;-77
2022/04/29 08:42:55;;;;;;;3.33;2.10;;;17.30;67.00;;;;;;6182485;23;20071;-78
2022/04/29 08:45:21;;;;;;;2.72;2.45;;;17.30;61.10;;;;;;6182373;23;20009;-77
2022/04/29 08:47:48;;;;;;;5.43;2.00;;;17.30;64.60;;;;;;6155774;23;20422;-78
2022/04/29 08:50:15;;;;;;;2.10;2.00;;;17.50;64.80;;;;;;6182741;23;20003;-79
2022/04/29 08:52:42;;;;;;;2.20;2.10;;;17.60;61.10;;;;;;6180854;23;20001;-79
2022/04/29 09:00:39;;;;;;;2.63;2.42;;;17.40;64.10;;;;;;6182032;23;20111;-79
2022/04/29 09:03:18;;;;;;;2.08;1.98;;;17.50;62.00;;;;;;6182061;23;20057;-78
2022/04/29 09:05:46;;;;;;;2.35;2.25;;;17.50;63.50;;;;;;6155965;23;20061;-78
2022/04/29 09:08:13;;;;;;;3.20;2.22;;;17.60;64.10;;;;;;6182323;23;20338;-79
2022/04/29 09:10:56;;;;;;;2.63;2.45;;;17.60;63.90;;;;;;6157622;23;20036;-80
2022/04/29 09:13:24;;;;;;;4.22;2.20;;;17.60;60.20;;;;;;6185173;23;19997;-75
2022/04/29 09:15:57;;;;;;;2.65;2.45;;;17.60;63.40;;;;;;6185293;23;20004;-75
2022/04/29 09:18:41;;;;;;;2.40;2.20;;;17.60;66.00;;;;;;6184954;23;20001;-75
2022/04/29 09:21:15;;;;;;;3.05;1.83;;;17.60;61.60;;;;;;6184976;23;20448;-76
2022/04/29 09:23:49;;;;;;;8.23;2.97;;;17.70;64.70;;;;;;6184687;23;20035;-75
2022/04/29 09:26:35;;;;;;;2.58;2.30;;;18.00;65.50;;;;;;6145908;23;20441;-75
2022/04/29 09:29:14;;;;;;;2.47;2.28;;;18.00;57.60;;;;;;6158500;23;20025;-76
2022/04/29 09:31:54;;;;;;;3.53;2.83;;;17.90;60.40;;;;;;6158730;23;20005;-75
2022/04/29 09:34:24;;;;;;;3.30;2.42;;;17.90;65.70;;;;;;6158801;23;20008;-79
2022/04/29 09:36:50;;;;;;;2.97;2.38;;;17.90;64.60;;;;;;6184869;23;20463;-79
2022/04/29 09:39:30;;;;;;;2.75;2.55;;;17.80;62.70;;;;;;6158869;23;20012;-79
2022/04/29 09:41:57;;;;;;;4.85;2.50;;;17.90;65.30;;;;;;6185430;23;20503;-79
2022/04/29 09:44:34;;;;;;;2.13;2.03;;;17.90;65.30;;;;;;6185588;23;20005;-79
2022/04/29 09:47:14;;;;;;;2.45;2.17;;;18.00;59.60;;;;;;6185295;23;20001;-80
2022/04/29 09:50:02;;;;;;;2.75;2.55;;;18.10;64.10;;;;;;6159280;23;20005;-79
2022/04/29 09:52:31;;;;;;;2.58;2.38;;;18.10;61.20;;;;;;6155919;23;20657;-80
2022/04/29 09:55:18;;;;;;;4.72;2.42;;;18.10;59.80;;;;;;6181890;23;20001;-79
2022/04/29 09:57:48;;;;;;;5.15;2.78;;;18.20;62.90;;;;;;6182426;23;20012;-80
2022/04/29 10:00:14;;;;;;;6.30;2.83;;;18.40;62.40;;;;;;6182339;23;20028;-79
2022/04/29 10:02:41;;;;;;;2.85;2.28;;;18.60;66.50;;;;;;6182169;23;20088;-79
2022/04/29 10:05:08;;;;;;;2.20;2.10;;;18.70;66.20;;;;;;6182360;23;20477;-80
2022/04/29 10:07:34;;;;;;;4.75;2.30;;;18.70;64.70;;;;;;6181482;23;20001;-79
2022/04/29 10:10:03;;;;;;;3.05;2.28;;;18.70;65.90;;;;;;6182618;23;20028;-79
2022/04/29 10:12:29;;;;;;;3.03;2.53;;;18.80;67.50;;;;;;6183107;23;19997;-79
2022/04/29 10:14:59;;;;;;;3.40;2.47;;;18.80;59.10;;;;;;6185282;23;20004;-79
2022/04/29 10:23:09;;;;;;;2.88;2.67;;;18.90;61.40;;;;;;6185029;23;20373;-79
2022/04/29 10:25:39;;;;;;;3.28;2.97;;;19.00;64.50;;;;;;6185111;23;20005;-80
2022/04/29 10:28:07;;;;;;;5.30;2.75;;;19.10;57.90;;;;;;6184760;23;20063;-79
2022/04/29 10:30:38;;;;;;;3.58;2.80;;;19.00;57.50;;;;;;6184730;23;20011;-80
2022/04/29 10:33:08;;;;;;;3.05;2.85;;;19.00;59.70;;;;;;6184864;23;19997;-80
2022/04/29 10:35:40;;;;;;;2.97;2.60;;;19.10;59.10;;;;;;6184612;23;19997;-79
2022/04/29 10:38:27;;;;;;;2.60;2.25;;;19.20;64.20;;;;;;6158722;23;20008;-79
2022/04/29 10:41:25;;;;;;;3.67;2.95;;;19.40;64.60;;;;;;6185045;23;20006;-79
2022/04/29 10:43:50;;;;;;;3.60;2.85;;;19.50;58.50;;;;;;6185137;23;20009;-80
2022/04/29 10:46:21;;;;;;;5.88;2.40;;;19.60;59.70;;;;;;6184895;23;20009;-80
2022/04/29 10:49:07;;;;;;;2.70;2.47;;;19.70;58.50;;;;;;6186370;23;19997;-79
2022/04/29 10:51:36;;;;;;;3.00;2.80;;;19.70;56.80;;;;;;6158052;23;20005;-79
2022/04/29 10:54:02;;;;;;;2.88;2.67;;;19.80;59.20;;;;;;6181827;23;20005;-79
2022/04/29 10:56:31;;;;;;;4.47;2.85;;;19.90;58.80;;;;;;6157157;23;20004;-79
2022/04/29 10:59:15;;;;;;;3.92;2.70;;;20.00;56.00;;;;;;6183820;23;20004;-79
2022/04/29 11:02:02;;;;;;;3.63;2.75;;;20.10;56.50;;;;;;6184049;23;20306;-80
2022/04/29 11:04:31;;;;;;;3.75;3.22;;;20.10;55.20;;;;;;6182579;23;20009;-81
2022/04/29 11:06:57;;;;;;;4.28;3.05;;;20.10;54.60;;;;;;6181317;23;20327;-80
2022/04/29 11:09:48;;;;;;;2.88;2.67;;;20.10;56.50;;;;;;6182162;23;20001;-81
2022/04/29 11:12:36;;;;;;;2.83;2.63;;;20.20;60.20;;;;;;6155674;23;20028;-80
2022/04/29 11:15:15;;;;;;;2.88;2.70;;;20.50;63.80;;;;;;6138931;23;20341;-79
2022/04/29 11:17:41;;;;;;;4.32;2.92;;;20.60;59.70;;;;;;6182155;23;20063;-81
2022/04/29 11:20:14;;;;;;;8.13;3.08;;;20.60;57.40;;;;;;6178168;23;20047;-80
2022/04/29 11:25:25;;;;;;;4.38;2.83;;;20.70;56.80;;;;;;6181899;23;20044;-80
2022/04/29 11:27:51;;;;;;;5.15;3.33;;;20.70;54.80;;;;;;6153905;23;20009;-80
2022/04/29 11:30:18;;;;;;;3.05;2.80;;;20.70;54.60;;;;;;6168088;23;20657;-78
2022/04/29 11:32:44;;;;;;;8.55;3.97;;;20.70;56.80;;;;;;6154495;23;20001;-79
2022/04/29 11:35:10;;;;;;;4.55;3.13;;;20.80;56.30;;;;;;6156384;23;20034;-79
2022/04/29 11:37:35;;;;;;;5.80;2.83;;;20.90;55.70;;;;;;6181572;23;20048;-78
2022/04/29 11:40:04;;;;;;;6.13;3.17;;;21.00;56.70;;;;;;6155493;23;20005;-78
2022/04/29 11:42:30;;;;;;;5.65;3.22;;;21.10;55.90;;;;;;6182666;23;20019;-78
2022/04/29 11:45:10;;;;;;;3.53;3.22;;;21.10;54.40;;;;;;6181828;23;20001;-79
2022/04/29 11:47:36;;;;;;;5.30;3.17;;;21.10;53.10;;;;;;6181189;23;20001;-80
2022/04/29 11:50:04;;;;;;;6.57;3.30;;;21.10;53.30;;;;;;6182086;23;20056;-80
2022/04/29 11:52:36;;;;;;;6.28;3.00;;;21.30;56.90;;;;;;6156439;23;20024;-80
2022/04/29 11:55:02;;;;;;;;;;;21.50;57.10;;;;;;6182770;23;20008;-80
2022/04/29 11:57:42;;;;;;;2.90;2.70;;;21.70;56.50;;;;;;6182637;23;19903;-79
2022/04/29 12:00:08;;;;;;;3.95;2.67;;;21.70;57.20;;;;;;6156072;23;20015;-78
2022/04/29 12:02:34;;;;;;;3.30;3.00;;;22.00;58.70;;;;;;6157064;23;20005;-79
2022/04/29 12:05:06;;;;;;;3.35;2.95;;;22.20;58.50;;;;;;6183154;23;20008;-78
2022/04/29 12:07:40;;;;;;;3.22;2.90;;;22.20;55.60;;;;;;6155926;23;20005;-78
2022/04/29 12:10:27;;;;;;;3.40;3.20;;;22.20;53.70;;;;;;6182790;23;20017;-79
2022/04/29 12:13:01;;;;;;;4.40;3.33;;;22.30;53.40;;;;;;6183202;23;20005;-78
2022/04/29 12:15:37;;;;;;;3.63;3.33;;;22.40;52.00;;;;;;6158334;23;20006;-78
2022/04/29 12:18:09;;;;;;;3.85;2.92;;;22.40;51.40;;;;;;6185911;23;20013;-79
2022/04/29 12:20:39;;;;;;;4.15;2.85;;;22.30;52.00;;;;;;6185756;23;20057;-76
2022/04/29 12:23:12;;;;;;;6.68;4.28;;;22.20;51.60;;;;;;6158719;23;20075;-76
2022/04/29 12:25:44;;;;;;;3.38;3.08;;;22.20;51.40;;;;;;6185690;23;20005;-75
2022/04/29 12:28:13;;;;;;;6.60;3.55;;;22.40;52.70;;;;;;6185408;23;20009;-76
2022/04/29 12:36:50;;;;;;;5.32;4.13;;;22.60;51.20;;;;;;6185420;23;20100;-76
2022/04/29 12:39:24;;;;;;;3.70;3.40;;;22.70;49.60;;;;;;6185615;23;20012;-76
2022/04/29 12:42:02;;;;;;;6.03;4.15;;;22.40;48.90;;;;;;6185448;23;20425;-76
2022/04/29 12:47:53;;;;;;;3.13;2.92;;;22.60;49.30;;;;;;6185128;23;20019;-76
2022/04/29 12:50:31;;;;;;;6.32;3.58;;;22.90;52.70;;;;;;6183553;23;20307;-76
2022/04/29 12:53:12;;;;;;;4.75;3.88;;;23.00;50.00;;;;;;6184898;23;20048;-76
2022/04/29 12:55:44;;;;;;;3.73;3.53;;;22.90;48.70;;;;;;6158609;23;20063;-75
2022/04/29 12:58:17;;;;;;;3.75;3.45;;;22.90;50.50;;;;;;6185154;23;20029;-75
2022/04/29 13:00:50;;;;;;;4.03;3.65;;;22.80;49.90;;;;;;6185078;23;20004;-75
2022/04/29 13:03:26;;;;;;;4.47;3.70;;;22.70;49.90;;;;;;6158877;23;20009;-76
2022/04/29 13:05:52;;;;;;;4.95;4.47;;;22.70;50.00;;;;;;6185047;23;20005;-75
2022/04/29 13:08:18;;;;;;;5.95;3.95;;;22.90;49.50;;;;;;6184981;23;20001;-75
2022/04/29 13:10:53;;;;;;;5.82;3.20;;;23.10;49.00;;;;;;6158614;23;20011;-75
2022/04/29 13:13:20;;;;;;;3.92;3.63;;;23.40;51.50;;;;;;6184794;23;19997;-75
2022/04/29 13:15:47;;;;;;;5.05;4.50;;;23.40;48.00;;;;;;6158729;23;20005;-76
2022/04/29 13:18:15;;;;;;;6.30;3.97;;;23.40;48.90;;;;;;6183526;23;20055;-75
2022/04/29 13:20:42;;;;;;;18.35;4.03;;;23.40;48.50;;;;;;6184016;23;20430;-76
2022/04/29 13:23:10;;;;;;;4.03;3.65;;;23.50;47.90;;;;;;6183703;23;20020;-75
2022/04/29 13:25:36;;;;;;;4.15;3.75;;;23.60;48.50;;;;;;6184081;23;20005;-75